Time;durP1;ratioP1;P1;durP2;ratioP2;P2;SDS_P1;SDS_P2;PMS_P1;PMS_P2;Temp;Humidity;BMP_temperature;BMP_pressure;BME280_temperature;BME280_humidity;BME280_pressure;Samples;Min_cycle;Max_cycle;Signal;HPM_P1;HPM_P2
2021/12/10 00:01:47;;;;;;;5.78;3.17;;;;;;;;;;5114047;27;20055;-41
2021/12/10 00:04:12;;;;;;;6.70;2.85;;;;;;;;;;5112666;27;20038;-39
2021/12/10 00:06:40;;;;;;;20.73;4.03;;;;;;;;;;5112982;27;20423;-39
2021/12/10 00:09:10;;;;;;;32.25;4.60;;;;;;;;;;5112863;27;20027;-38
2021/12/10 00:11:44;;;;;;;16.45;4.53;;;;;;;;;;5114172;27;20379;-38
2021/12/10 00:14:09;;;;;;;14.80;3.67;;;;;;;;;;5114072;27;20027;-39
2021/12/10 00:16:35;;;;;;;5.70;3.58;;;;;;;;;;5116731;27;20102;-40
2021/12/10 00:20:02;;;;;;;13.55;3.65;;;;;;;;;;5115919;27;20044;-40
2021/12/10 00:21:57;;;;;;;8.52;2.80;;;;;;;;;;5097890;27;20039;-38
2021/12/10 00:24:25;;;;;;;17.38;3.35;;;;;;;;;;5110664;27;20035;-38
2021/12/10 00:26:51;;;;;;;11.45;3.17;;;;;;;;;;5108108;27;20110;-38
2021/12/10 00:29:18;;;;;;;12.45;3.22;;;;;;;;;;5111971;27;20772;-38
2021/12/10 00:31:48;;;;;;;12.60;2.78;;;;;;;;;;5113800;27;20023;-38
2021/12/10 00:34:22;;;;;;;5.30;1.92;;;;;;;;;;5111136;27;20019;-39
2021/12/10 00:36:48;;;;;;;14.98;3.03;;;;;;;;;;5111340;27;20180;-37
2021/12/10 00:39:17;;;;;;;5.80;2.25;;;;;;;;;;5111642;27;20620;-37
2021/12/10 00:41:42;;;;;;;5.95;3.03;;;;;;;;;;5112187;27;20015;-39
2021/12/10 00:44:08;;;;;;;17.92;4.70;;;;;;;;;;5110446;27;20063;-38
2021/12/10 00:46:34;;;;;;;20.27;3.17;;;;;;;;;;5115244;27;20628;-38
2021/12/10 00:49:00;;;;;;;9.40;2.08;;;;;;;;;;5111030;27;20797;-38
2021/12/10 00:51:25;;;;;;;14.88;2.15;;;;;;;;;;5115646;27;20032;-38
2021/12/10 00:53:52;;;;;;;5.55;1.73;;;;;;;;;;5113606;28;20027;-42
2021/12/10 00:56:17;;;;;;;3.40;1.30;;;;;;;;;;5114593;28;20027;-38
2021/12/10 00:58:43;;;;;;;18.95;4.68;;;;;;;;;;5109229;28;20400;-37
2021/12/10 01:01:13;;;;;;;4.45;1.30;;;;;;;;;;5110969;28;20167;-41
2021/12/10 01:03:41;;;;;;;5.40;1.35;;;;;;;;;;5106163;28;20023;-37
2021/12/10 01:06:08;;;;;;;3.97;1.40;;;;;;;;;;5110098;27;20049;-40
2021/12/10 01:08:34;;;;;;;8.88;2.63;;;;;;;;;;5113342;27;20246;-37
2021/12/10 01:11:08;;;;;;;3.03;1.77;;;;;;;;;;5120031;27;20500;-40
2021/12/10 01:13:36;;;;;;;7.15;2.03;;;;;;;;;;5116291;27;20018;-39
2021/12/10 01:24:19;;;;;;;6.15;3.20;;;;;;;;;;5115703;27;20097;-39
2021/12/10 01:29:12;;;;;;;8.43;4.22;;;;;;;;;;5115458;27;20020;-39
2021/12/10 01:31:38;;;;;;;5.53;2.00;;;;;;;;;;5117344;27;20023;-39
2021/12/10 01:34:05;;;;;;;3.17;2.05;;;;;;;;;;5115440;27;20023;-39
2021/12/10 01:36:30;;;;;;;13.82;2.08;;;;;;;;;;5116293;27;20026;-38
2021/12/10 01:38:55;;;;;;;5.28;1.77;;;;;;;;;;5116215;27;20067;-39
2021/12/10 01:41:24;;;;;;;9.40;4.18;;;;;;;;;;5114871;27;20031;-40
2021/12/10 01:43:51;;;;;;;4.43;2.38;;;;;;;;;;5115336;27;20023;-39
2021/12/10 01:46:24;;;;;;;11.75;2.58;;;;;;;;;;5117996;27;20023;-38
2021/12/10 01:48:52;;;;;;;1.55;0.70;;;;;;;;;;5120757;27;20022;-40
2021/12/10 01:51:19;;;;;;;7.13;2.17;;;;;;;;;;5115666;27;20031;-38
2021/12/10 01:53:46;;;;;;;3.65;1.13;;;;;;;;;;5117888;27;20012;-40
2021/12/10 01:56:13;;;;;;;5.03;1.70;;;;;;;;;;5116895;27;20061;-40
2021/12/10 01:58:38;;;;;;;5.40;1.42;;;;;;;;;;5120371;27;20026;-41
2021/12/10 02:01:06;;;;;;;1.92;0.98;;;;;;;;;;5118758;27;20015;-38
2021/12/10 02:03:31;;;;;;;3.08;1.48;;;;;;;;;;5117269;27;20023;-39
2021/12/10 02:05:58;;;;;;;7.05;1.80;;;;;;;;;;5117970;27;20019;-39
2021/12/10 02:08:23;;;;;;;2.67;0.93;;;;;;;;;;5117919;27;20027;-43
2021/12/10 02:10:48;;;;;;;4.13;1.20;;;;;;;;;;5119484;27;20019;-39
2021/12/10 02:13:14;;;;;;;9.85;2.72;;;;;;;;;;5105280;27;20026;-39
2021/12/10 02:15:39;;;;;;;3.15;1.33;;;;;;;;;;5120079;27;20058;-40
2021/12/10 02:18:06;;;;;;;4.95;0.57;;;;;;;;;;5119465;27;20064;-39
2021/12/10 02:20:36;;;;;;;5.22;1.15;;;;;;;;;;5119970;27;20641;-39
2021/12/10 02:23:03;;;;;;;5.53;1.48;;;;;;;;;;5113347;27;20092;-40
2021/12/10 02:25:30;;;;;;;4.57;1.27;;;;;;;;;;5116971;27;20111;-39
2021/12/10 02:27:56;;;;;;;6.07;1.85;;;;;;;;;;5116002;27;20030;-42
2021/12/10 02:30:23;;;;;;;13.50;2.00;;;;;;;;;;5115833;27;20487;-38
2021/12/10 02:32:49;;;;;;;5.80;1.35;;;;;;;;;;5117369;27;20111;-41
2021/12/10 02:35:15;;;;;;;9.35;3.50;;;;;;;;;;5118472;27;20850;-39
2021/12/10 02:37:41;;;;;;;9.73;1.33;;;;;;;;;;5116271;27;20023;-39
2021/12/10 02:40:07;;;;;;;7.28;1.85;;;;;;;;;;5119520;27;20012;-42
2021/12/10 02:42:33;;;;;;;12.88;2.88;;;;;;;;;;5119795;27;20506;-38
2021/12/10 02:44:58;;;;;;;5.95;2.45;;;;;;;;;;5120204;27;20019;-41
2021/12/10 02:47:23;;;;;;;5.82;2.35;;;;;;;;;;5118751;27;20084;-39
2021/12/10 02:49:49;;;;;;;9.10;1.75;;;;;;;;;;5119262;27;20026;-40
2021/12/10 02:52:15;;;;;;;1.70;1.02;;;;;;;;;;5116351;27;20051;-42
2021/12/10 02:54:43;;;;;;;11.73;1.98;;;;;;;;;;5116582;27;20103;-39
2021/12/10 02:57:10;;;;;;;4.88;1.73;;;;;;;;;;5117074;27;20047;-39
2021/12/10 02:59:36;;;;;;;3.85;1.40;;;;;;;;;;5117999;27;20022;-38
2021/12/10 03:02:03;;;;;;;3.90;1.33;;;;;;;;;;5118178;27;20399;-39
2021/12/10 03:04:31;;;;;;;5.22;1.60;;;;;;;;;;5115241;27;20025;-39
2021/12/10 03:06:59;;;;;;;1.15;0.60;;;;;;;;;;5099694;27;20398;-42
2021/12/10 03:09:26;;;;;;;7.80;1.70;;;;;;;;;;5118024;27;20437;-39
2021/12/10 03:11:53;;;;;;;5.07;1.42;;;;;;;;;;5116266;27;20041;-41
2021/12/10 03:14:22;;;;;;;5.47;1.15;;;;;;;;;;5115831;27;20233;-40
2021/12/10 03:16:51;;;;;;;4.07;0.57;;;;;;;;;;5119476;27;20024;-39
2021/12/10 03:19:17;;;;;;;3.72;0.82;;;;;;;;;;5113395;27;20554;-41
2021/12/10 03:21:44;;;;;;;0.93;0.52;;;;;;;;;;5117314;27;20105;-39
2021/12/10 03:24:11;;;;;;;7.22;1.42;;;;;;;;;;5116553;27;20027;-43
2021/12/10 03:26:36;;;;;;;1.67;1.00;;;;;;;;;;5114626;27;20632;-38
2021/12/10 03:29:02;;;;;;;8.10;2.35;;;;;;;;;;5114421;27;20024;-39
2021/12/10 03:31:28;;;;;;;6.45;1.70;;;;;;;;;;5111499;27;20034;-38
2021/12/10 03:33:54;;;;;;;7.53;1.25;;;;;;;;;;5117421;27;20102;-38
2021/12/10 03:36:20;;;;;;;3.38;1.25;;;;;;;;;;5113632;27;20436;-38
2021/12/10 03:38:45;;;;;;;4.32;1.15;;;;;;;;;;5113882;27;20020;-39
2021/12/10 03:41:11;;;;;;;4.90;0.82;;;;;;;;;;5111774;27;20019;-38
2021/12/10 03:43:37;;;;;;;3.38;1.02;;;;;;;;;;5115674;27;20339;-38
2021/12/10 03:46:04;;;;;;;3.55;1.25;;;;;;;;;;5120876;27;20492;-41
2021/12/10 03:48:32;;;;;;;1.80;0.73;;;;;;;;;;5115127;27;20053;-39
2021/12/10 03:50:58;;;;;;;4.63;1.60;;;;;;;;;;5117555;27;20019;-41
2021/12/10 03:53:24;;;;;;;2.72;1.60;;;;;;;;;;5115386;27;20012;-39
2021/12/10 03:55:49;;;;;;;4.78;1.95;;;;;;;;;;5118519;27;20399;-41
2021/12/10 03:58:15;;;;;;;1.40;0.77;;;;;;;;;;5114420;27;20065;-43
2021/12/10 04:00:42;;;;;;;5.03;1.05;;;;;;;;;;5115746;27;20795;-41
2021/12/10 04:03:08;;;;;;;7.80;1.50;;;;;;;;;;5114828;27;20019;-40
2021/12/10 04:05:34;;;;;;;1.25;0.85;;;;;;;;;;5115803;27;20131;-39
2021/12/10 04:07:59;;;;;;;11.60;2.45;;;;;;;;;;5118922;27;20733;-41
2021/12/10 04:10:26;;;;;;;7.68;1.75;;;;;;;;;;5113913;27;20023;-40
2021/12/10 04:12:51;;;;;;;7.00;2.28;;;;;;;;;;5114465;27;20088;-43
2021/12/10 04:15:20;;;;;;;9.25;2.83;;;;;;;;;;5112821;27;20479;-41
2021/12/10 04:17:48;;;;;;;7.00;2.63;;;;;;;;;;5114756;27;20030;-40
2021/12/10 04:20:13;;;;;;;8.98;2.38;;;;;;;;;;5082736;28;20104;-39
2021/12/10 04:22:38;;;;;;;2.60;0.93;;;;;;;;;;5114470;27;20015;-38
2021/12/10 04:25:06;;;;;;;11.48;1.52;;;;;;;;;;5113502;27;20522;-39
2021/12/10 04:27:32;;;;;;;9.52;3.00;;;;;;;;;;5115269;27;20015;-40
2021/12/10 04:29:58;;;;;;;6.28;1.98;;;;;;;;;;5117324;27;20027;-39
2021/12/10 04:32:24;;;;;;;2.20;1.60;;;;;;;;;;5113220;27;20468;-39
2021/12/10 04:34:50;;;;;;;10.55;1.50;;;;;;;;;;5114747;27;20210;-39
2021/12/10 04:37:16;;;;;;;8.05;1.65;;;;;;;;;;5115105;27;20504;-44
2021/12/10 04:39:45;;;;;;;11.48;2.95;;;;;;;;;;5110597;27;20706;-39
2021/12/10 04:42:11;;;;;;;6.07;2.13;;;;;;;;;;5110695;27;20096;-40
2021/12/10 04:44:37;;;;;;;3.83;1.27;;;;;;;;;;5113755;27;20030;-38
2021/12/10 04:47:03;;;;;;;7.18;2.85;;;;;;;;;;5114336;27;20116;-41
2021/12/10 04:49:28;;;;;;;9.10;2.42;;;;;;;;;;5114730;27;20022;-38
2021/12/10 04:51:54;;;;;;;5.80;2.45;;;;;;;;;;5118545;28;20280;-39
2021/12/10 04:54:21;;;;;;;2.17;1.33;;;;;;;;;;5115252;28;20016;-39
2021/12/10 04:56:47;;;;;;;12.25;3.15;;;;;;;;;;5114832;28;20368;-39
2021/12/10 04:59:14;;;;;;;8.57;2.55;;;;;;;;;;5116002;28;20297;-39
2021/12/10 05:01:39;;;;;;;7.72;1.95;;;;;;;;;;5112290;28;20049;-37
2021/12/10 05:04:07;;;;;;;7.65;0.70;;;;;;;;;;5116033;28;20019;-36
2021/12/10 05:06:33;;;;;;;6.32;1.52;;;;;;;;;;5116425;28;20077;-39
2021/12/10 05:08:58;;;;;;;7.85;1.05;;;;;;;;;;5110973;28;20506;-37
2021/12/10 05:11:24;;;;;;;13.25;1.75;;;;;;;;;;5111874;28;20110;-40
2021/12/10 05:13:49;;;;;;;4.70;1.50;;;;;;;;;;5115867;28;20107;-37
2021/12/10 05:16:16;;;;;;;10.38;3.03;;;;;;;;;;5114605;28;20022;-39
2021/12/10 05:18:44;;;;;;;3.10;2.05;;;;;;;;;;5114470;28;20051;-39
2021/12/10 05:21:11;;;;;;;10.10;2.00;;;;;;;;;;5112326;28;20011;-39
2021/12/10 05:23:37;;;;;;;6.22;2.72;;;;;;;;;;5114227;28;20057;-37
2021/12/10 05:26:03;;;;;;;8.90;2.90;;;;;;;;;;5113019;28;20457;-40
2021/12/10 05:28:28;;;;;;;6.35;1.30;;;;;;;;;;5115181;28;20030;-41
2021/12/10 05:30:56;;;;;;;2.47;2.03;;;;;;;;;;5114069;28;20034;-39
2021/12/10 05:33:22;;;;;;;4.35;1.80;;;;;;;;;;5115135;28;20028;-39
2021/12/10 05:35:47;;;;;;;9.38;3.10;;;;;;;;;;5119536;28;20115;-38
2021/12/10 05:38:14;;;;;;;3.03;0.70;;;;;;;;;;5111614;28;20365;-39
2021/12/10 05:40:39;;;;;;;10.90;2.33;;;;;;;;;;5118587;28;20020;-39
2021/12/10 05:43:04;;;;;;;9.30;2.10;;;;;;;;;;5115699;28;20034;-38
2021/12/10 05:45:31;;;;;;;1.77;0.60;;;;;;;;;;5114249;28;20559;-39
2021/12/10 05:47:56;;;;;;;5.78;0.82;;;;;;;;;;5112055;28;20172;-40
2021/12/10 05:50:23;;;;;;;3.80;0.90;;;;;;;;;;5113322;28;20106;-40
2021/12/10 05:52:48;;;;;;;3.72;0.63;;;;;;;;;;5114497;27;20075;-37
2021/12/10 05:55:14;;;;;;;8.40;1.17;;;;;;;;;;5115604;27;20015;-38
2021/12/10 05:57:40;;;;;;;6.65;1.27;;;;;;;;;;5116230;27;20050;-38
2021/12/10 06:00:08;;;;;;;8.25;2.28;;;;;;;;;;5117821;27;20062;-39
2021/12/10 06:02:33;;;;;;;4.75;2.47;;;;;;;;;;5115662;27;20046;-39
2021/12/10 06:04:59;;;;;;;7.93;2.20;;;;;;;;;;5117746;27;20535;-39
2021/12/10 06:07:24;;;;;;;7.20;3.53;;;;;;;;;;5119936;27;20019;-40
2021/12/10 06:09:50;;;;;;;2.63;1.67;;;;;;;;;;5117975;27;20046;-41
2021/12/10 06:12:15;;;;;;;21.10;4.00;;;;;;;;;;5116050;27;20054;-38
2021/12/10 06:14:41;;;;;;;2.50;1.02;;;;;;;;;;5120210;27;20023;-37
2021/12/10 06:17:06;;;;;;;4.32;1.88;;;;;;;;;;5117129;27;20172;-41
2021/12/10 06:19:32;;;;;;;4.10;1.40;;;;;;;;;;5116410;27;20039;-40
2021/12/10 06:21:57;;;;;;;6.20;1.58;;;;;;;;;;5114068;27;20030;-38
2021/12/10 06:24:23;;;;;;;6.20;1.42;;;;;;;;;;5117366;27;20483;-39
2021/12/10 06:26:51;;;;;;;2.92;0.95;;;;;;;;;;5116001;27;20027;-39
2021/12/10 06:29:17;;;;;;;3.45;1.35;;;;;;;;;;5117221;27;20050;-38
2021/12/10 06:31:42;;;;;;;2.17;0.50;;;;;;;;;;5119679;27;20023;-38
2021/12/10 06:34:08;;;;;;;0.77;0.38;;;;;;;;;;5120840;27;20091;-39
2021/12/10 06:36:35;;;;;;;6.25;1.35;;;;;;;;;;5114855;27;20019;-38
2021/12/10 06:39:02;;;;;;;3.80;0.98;;;;;;;;;;5119190;27;20072;-40
2021/12/10 06:41:28;;;;;;;4.55;0.47;;;;;;;;;;5121378;27;20081;-39
2021/12/10 06:43:53;;;;;;;4.05;1.65;;;;;;;;;;5115913;27;20023;-39
2021/12/10 06:46:18;;;;;;;4.93;2.88;;;;;;;;;;5118036;27;20060;-40
2021/12/10 06:48:44;;;;;;;13.20;3.50;;;;;;;;;;5115806;27;20073;-37
2021/12/10 06:51:14;;;;;;;2.30;1.13;;;;;;;;;;5116754;27;20545;-39
2021/12/10 06:53:41;;;;;;;1.67;1.13;;;;;;;;;;5118052;27;20209;-39
2021/12/10 06:56:10;;;;;;;4.70;1.08;;;;;;;;;;5117572;27;20015;-38
2021/12/10 06:58:35;;;;;;;3.05;1.45;;;;;;;;;;5119995;27;20025;-41
2021/12/10 07:01:12;;;;;;;4.80;2.10;;;;;;;;;;5116869;27;20023;-39
2021/12/10 07:03:37;;;;;;;13.23;1.83;;;;;;;;;;5113435;27;20036;-39
2021/12/10 07:06:04;;;;;;;7.53;2.05;;;;;;;;;;5116130;27;20026;-38
2021/12/10 07:08:31;;;;;;;5.38;2.08;;;;;;;;;;5115029;27;20050;-39
2021/12/10 07:10:56;;;;;;;4.03;1.50;;;;;;;;;;5115090;27;20079;-44
2021/12/10 07:13:22;;;;;;;7.15;1.70;;;;;;;;;;5114279;27;20036;-38
2021/12/10 07:15:48;;;;;;;1.70;0.95;;;;;;;;;;5116687;27;20499;-39
2021/12/10 07:18:14;;;;;;;1.40;0.80;;;;;;;;;;5114635;27;20512;-41
2021/12/10 07:20:41;;;;;;;5.82;1.35;;;;;;;;;;5115302;27;20088;-43
2021/12/10 07:23:06;;;;;;;10.48;2.28;;;;;;;;;;5114736;27;20049;-41
2021/12/10 07:25:31;;;;;;;4.22;1.70;;;;;;;;;;5112839;27;20029;-41
2021/12/10 07:27:56;;;;;;;9.02;1.73;;;;;;;;;;5113727;27;20102;-41
2021/12/10 07:30:23;;;;;;;5.63;1.48;;;;;;;;;;5117332;27;20087;-47
2021/12/10 07:32:48;;;;;;;3.10;1.17;;;;;;;;;;5114181;27;20028;-43
2021/12/10 07:35:14;;;;;;;5.03;2.63;;;;;;;;;;5114543;27;20022;-44
2021/12/10 07:37:40;;;;;;;11.52;4.00;;;;;;;;;;5113763;27;20027;-41
2021/12/10 07:40:06;;;;;;;7.32;2.42;;;;;;;;;;5119958;27;20067;-40
2021/12/10 07:42:32;;;;;;;4.70;2.03;;;;;;;;;;5120480;27;20375;-44
2021/12/10 07:44:57;;;;;;;20.17;4.63;;;;;;;;;;5118211;27;20027;-44
2021/12/10 07:47:23;;;;;;;5.07;1.55;;;;;;;;;;5113949;27;20020;-42
2021/12/10 07:49:48;;;;;;;4.40;1.85;;;;;;;;;;5114558;27;20547;-43
2021/12/10 07:52:18;;;;;;;11.65;3.05;;;;;;;;;;5119338;27;20034;-42
2021/12/10 07:54:46;;;;;;;5.95;2.03;;;;;;;;;;5116139;27;20071;-41
2021/12/10 07:57:11;;;;;;;13.15;2.83;;;;;;;;;;5116225;27;20033;-40
2021/12/10 07:59:37;;;;;;;2.53;1.27;;;;;;;;;;5114843;27;20030;-39
2021/12/10 08:02:03;;;;;;;17.25;3.60;;;;;;;;;;5114227;27;20589;-42
2021/12/10 08:04:28;;;;;;;5.00;2.33;;;;;;;;;;5098482;27;20023;-39
2021/12/10 08:06:54;;;;;;;15.13;3.13;;;;;;;;;;5114894;27;20479;-40
2021/12/10 08:09:19;;;;;;;7.65;3.28;;;;;;;;;;5116082;27;20076;-44
2021/12/10 08:11:44;;;;;;;12.93;1.15;;;;;;;;;;5117957;27;20031;-42
2021/12/10 08:14:10;;;;;;;2.33;1.27;;;;;;;;;;5115454;27;20027;-44
2021/12/10 08:16:36;;;;;;;6.57;4.07;;;;;;;;;;5115409;27;20016;-44
2021/12/10 08:19:02;;;;;;;6.53;2.15;;;;;;;;;;5114987;27;20682;-45
2021/12/10 08:21:27;;;;;;;4.35;1.85;;;;;;;;;;5115333;27;20047;-45
2021/12/10 08:23:53;;;;;;;2.70;1.10;;;;;;;;;;5115476;27;20715;-44
2021/12/10 08:26:19;;;;;;;8.18;1.73;;;;;;;;;;5112889;27;20031;-44
2021/12/10 08:28:45;;;;;;;9.55;2.22;;;;;;;;;;5113806;27;20672;-46
2021/12/10 08:31:14;;;;;;;15.07;3.35;;;;;;;;;;5113497;27;20553;-45
2021/12/10 08:33:42;;;;;;;4.78;2.10;;;;;;;;;;5114948;27;20037;-44
2021/12/10 08:36:10;;;;;;;5.63;2.22;;;;;;;;;;5116408;27;20070;-45
2021/12/10 08:38:35;;;;;;;16.50;1.90;;;;;;;;;;5111730;27;20015;-45
2021/12/10 08:41:04;;;;;;;8.43;2.42;;;;;;;;;;5118806;27;20014;-43
2021/12/10 08:43:29;;;;;;;8.10;2.22;;;;;;;;;;5115520;27;20140;-44
2021/12/10 08:45:55;;;;;;;19.23;1.98;;;;;;;;;;5114040;27;20504;-44
2021/12/10 08:48:21;;;;;;;2.55;1.65;;;;;;;;;;5112488;28;20096;-42
2021/12/10 08:50:47;;;;;;;10.32;1.65;;;;;;;;;;5115215;27;20224;-45
2021/12/10 08:53:12;;;;;;;9.73;2.33;;;;;;;;;;5111121;27;20498;-48
2021/12/10 08:55:38;;;;;;;2.42;0.65;;;;;;;;;;5114851;28;20019;-44
2021/12/10 08:58:04;;;;;;;2.97;1.27;;;;;;;;;;5114778;28;20089;-47
2021/12/10 09:00:30;;;;;;;5.95;0.73;;;;;;;;;;5112738;28;20098;-43
2021/12/10 09:02:56;;;;;;;4.82;1.38;;;;;;;;;;5112817;28;20446;-46
2021/12/10 09:05:22;;;;;;;2.80;1.02;;;;;;;;;;5113077;28;20066;-49
2021/12/10 09:07:48;;;;;;;11.77;1.75;;;;;;;;;;5116162;28;20511;-46
2021/12/10 09:10:18;;;;;;;11.35;3.65;;;;;;;;;;5113387;28;20031;-45
2021/12/10 09:12:44;;;;;;;7.72;1.75;;;;;;;;;;5111556;28;20026;-46
2021/12/10 09:15:11;;;;;;;10.60;2.72;;;;;;;;;;5112478;28;20425;-46
2021/12/10 09:17:37;;;;;;;4.55;1.20;;;;;;;;;;5113514;28;20791;-47
2021/12/10 09:20:06;;;;;;;6.25;1.63;;;;;;;;;;5115120;28;20092;-47
2021/12/10 09:22:31;;;;;;;8.52;2.15;;;;;;;;;;5117308;28;20015;-47
2021/12/10 09:24:57;;;;;;;9.73;3.17;;;;;;;;;;5114646;28;20049;-47
2021/12/10 09:27:23;;;;;;;6.70;3.13;;;;;;;;;;5115186;27;20031;-49
2021/12/10 09:29:49;;;;;;;10.02;4.15;;;;;;;;;;5121081;27;20396;-46
2021/12/10 09:32:20;;;;;;;2.33;1.15;;;;;;;;;;5118044;27;20126;-43
2021/12/10 09:34:46;;;;;;;1.60;1.10;;;;;;;;;;5117755;27;20045;-44
2021/12/10 09:37:14;;;;;;;7.93;2.33;;;;;;;;;;5118262;27;20070;-43
2021/12/10 09:39:43;;;;;;;7.35;2.53;;;;;;;;;;5119267;27;20027;-43
2021/12/10 09:42:09;;;;;;;9.40;2.22;;;;;;;;;;5114816;27;20035;-46
2021/12/10 09:44:35;;;;;;;4.28;1.38;;;;;;;;;;5121664;27;20075;-45
2021/12/10 09:47:01;;;;;;;2.13;1.50;;;;;;;;;;5118536;27;20019;-43
2021/12/10 09:49:27;;;;;;;8.70;3.97;;;;;;;;;;5122445;27;20024;-44
2021/12/10 09:52:00;;;;;;;5.82;1.98;;;;;;;;;;5117368;27;20039;-43
2021/12/10 09:54:26;;;;;;;7.20;3.55;;;;;;;;;;5118657;27;20141;-46
2021/12/10 09:57:11;;;;;;;3.85;2.05;;;;;;;;;;5121691;27;20030;-46
2021/12/10 09:59:38;;;;;;;2.90;1.42;;;;;;;;;;5117490;27;20026;-45
2021/12/10 10:02:04;;;;;;;5.50;2.80;;;;;;;;;;5118270;27;20019;-46
2021/12/10 10:04:33;;;;;;;6.43;2.30;;;;;;;;;;5115076;27;20023;-45
2021/12/10 10:07:01;;;;;;;11.15;5.55;;;;;;;;;;5110826;27;20027;-47
2021/12/10 10:09:27;;;;;;;12.00;3.60;;;;;;;;;;5114482;27;20629;-46
2021/12/10 10:11:59;;;;;;;4.43;1.73;;;;;;;;;;5116503;27;20076;-44
2021/12/10 10:14:25;;;;;;;15.95;2.30;;;;;;;;;;5117338;27;20015;-50
2021/12/10 10:16:51;;;;;;;3.83;2.03;;;;;;;;;;5117394;27;20405;-45
2021/12/10 10:19:17;;;;;;;3.70;1.48;;;;;;;;;;5116236;27;20051;-47
2021/12/10 10:21:44;;;;;;;8.40;2.80;;;;;;;;;;5114173;27;20020;-45
2021/12/10 10:24:10;;;;;;;5.80;0.98;;;;;;;;;;5117391;27;20024;-46
2021/12/10 10:26:38;;;;;;;2.55;0.75;;;;;;;;;;5113838;27;20050;-47
2021/12/10 10:29:06;;;;;;;2.40;0.63;;;;;;;;;;5111174;27;20020;-49
2021/12/10 10:31:33;;;;;;;4.28;1.33;;;;;;;;;;5114289;27;20035;-45
2021/12/10 10:33:59;;;;;;;3.47;1.42;;;;;;;;;;5117084;27;20508;-47
2021/12/10 10:36:29;;;;;;;26.75;4.97;;;;;;;;;;5114680;27;20484;-50
2021/12/10 10:39:09;;;;;;;2.33;1.27;;;;;;;;;;5121819;27;20674;-45
2021/12/10 10:41:36;;;;;;;10.50;4.57;;;;;;;;;;5113295;27;20012;-46
2021/12/10 10:44:02;;;;;;;13.05;4.05;;;;;;;;;;5117851;27;20028;-47
2021/12/10 10:46:28;;;;;;;20.80;3.30;;;;;;;;;;5116631;27;20042;-47
2021/12/10 10:48:53;;;;;;;11.98;4.05;;;;;;;;;;5115252;27;20023;-51
2021/12/10 10:51:25;;;;;;;7.80;2.80;;;;;;;;;;5114471;27;20075;-45
2021/12/10 10:53:51;;;;;;;6.15;2.65;;;;;;;;;;5117248;27;20031;-54
2021/12/10 10:56:18;;;;;;;13.82;2.53;;;;;;;;;;5115038;27;20426;-44
2021/12/10 10:58:46;;;;;;;18.95;5.85;;;;;;;;;;5119893;27;20023;-47
2021/12/10 11:01:21;;;;;;;13.20;3.70;;;;;;;;;;5117484;27;20436;-46
2021/12/10 11:03:51;;;;;;;22.70;3.95;;;;;;;;;;5116789;27;20034;-48
2021/12/10 11:06:19;;;;;;;10.52;3.53;;;;;;;;;;5119934;27;20042;-48
2021/12/10 11:08:46;;;;;;;17.13;5.47;;;;;;;;;;5116598;27;20500;-49
2021/12/10 11:11:41;;;;;;;16.17;5.38;;;;;;;;;;5111279;27;20016;-49
2021/12/10 11:14:06;;;;;;;7.13;3.03;;;;;;;;;;5111692;27;20032;-45
2021/12/10 11:16:32;;;;;;;15.48;4.95;;;;;;;;;;5115517;27;20033;-46
2021/12/10 11:19:02;;;;;;;12.52;4.95;;;;;;;;;;5116755;27;20054;-48
2021/12/10 11:21:49;;;;;;;14.65;4.40;;;;;;;;;;5115797;27;20028;-45
2021/12/10 11:24:20;;;;;;;2.72;1.38;;;;;;;;;;5117120;27;20027;-49
2021/12/10 11:26:47;;;;;;;1.42;0.98;;;;;;;;;;5112964;27;20024;-45
2021/12/10 11:29:27;;;;;;;5.63;2.47;;;;;;;;;;5113491;27;20080;-50
2021/12/10 11:31:59;;;;;;;34.50;17.77;;;;;;;;;;5114097;27;20024;-48
2021/12/10 11:34:46;;;;;;;13.52;5.50;;;;;;;;;;5118679;27;20019;-47
2021/12/10 11:37:12;;;;;;;18.15;4.28;;;;;;;;;;5119137;27;20099;-46
2021/12/10 11:39:55;;;;;;;12.55;4.25;;;;;;;;;;5117900;27;20058;-46
2021/12/10 11:42:40;;;;;;;8.05;1.60;;;;;;;;;;5113244;27;20510;-50
2021/12/10 11:45:29;;;;;;;7.72;1.83;;;;;;;;;;5113551;27;20031;-46
2021/12/10 11:48:11;;;;;;;5.45;2.25;;;;;;;;;;5117165;27;20031;-48
2021/12/10 11:50:40;;;;;;;15.68;4.03;;;;;;;;;;5111272;27;20030;-47
2021/12/10 11:53:08;;;;;;;13.48;3.50;;;;;;;;;;5113231;27;20042;-47
2021/12/10 11:55:35;;;;;;;8.70;3.08;;;;;;;;;;5113490;27;20066;-49
2021/12/10 11:58:00;;;;;;;12.20;4.63;;;;;;;;;;5112805;27;20020;-46
2021/12/10 12:00:33;;;;;;;5.32;1.65;;;;;;;;;;5116026;27;20380;-46
2021/12/10 12:03:01;;;;;;;22.20;4.65;;;;;;;;;;5117844;27;20019;-47
2021/12/10 12:05:28;;;;;;;5.00;2.30;;;;;;;;;;5114980;27;20048;-45
2021/12/10 12:07:55;;;;;;;17.45;5.53;;;;;;;;;;5115329;27;20069;-47
2021/12/10 12:10:28;;;;;;;15.75;2.55;;;;;;;;;;5115496;27;20505;-44
2021/12/10 12:12:55;;;;;;;9.52;3.83;;;;;;;;;;5115810;27;20087;-45
2021/12/10 12:15:31;;;;;;;15.52;6.82;;;;;;;;;;5113599;27;20027;-47
2021/12/10 12:18:07;;;;;;;10.45;4.65;;;;;;;;;;5115509;27;20484;-48
2021/12/10 12:20:35;;;;;;;9.80;3.55;;;;;;;;;;5114494;27;20045;-46
2021/12/10 12:25:49;;;;;;;25.65;4.45;;;;;;;;;;5111902;27;20042;-45
2021/12/10 12:28:16;;;;;;;8.18;3.55;;;;;;;;;;5110509;27;20019;-45
2021/12/10 12:31:00;;;;;;;9.60;2.65;;;;;;;;;;5113829;27;20023;-43
2021/12/10 12:33:27;;;;;;;7.55;2.70;;;;;;;;;;5113584;27;20407;-44
2021/12/10 12:35:53;;;;;;;16.23;5.43;;;;;;;;;;5114611;27;20157;-48
2021/12/10 12:38:23;;;;;;;5.70;2.58;;;;;;;;;;5113083;27;20035;-46
2021/12/10 12:41:04;;;;;;;17.23;2.25;;;;;;;;;;5115255;27;20034;-46
2021/12/10 12:43:29;;;;;;;;;;;;;;;;;;5113400;27;20782;-50
2021/12/10 12:46:02;;;;;;;20.10;4.28;;;;;;;;;;5116395;27;19911;-46
2021/12/10 12:48:28;;;;;;;6.57;1.63;;;;;;;;;;5114218;27;20031;-50
2021/12/10 12:50:55;;;;;;;8.80;2.15;;;;;;;;;;5116861;27;20030;-46
2021/12/10 12:53:25;;;;;;;15.98;4.00;;;;;;;;;;5114823;28;20027;-47
2021/12/10 12:55:56;;;;;;;5.22;2.03;;;;;;;;;;5112888;28;20023;-47
2021/12/10 12:58:22;;;;;;;15.35;3.50;;;;;;;;;;5111737;28;20027;-47
2021/12/10 13:00:50;;;;;;;10.77;5.45;;;;;;;;;;5112097;28;20020;-46
2021/12/10 13:03:18;;;;;;;12.98;3.83;;;;;;;;;;5113326;27;20019;-46
2021/12/10 13:05:43;;;;;;;9.38;2.92;;;;;;;;;;5118049;27;20015;-45
2021/12/10 13:08:13;;;;;;;9.77;2.47;;;;;;;;;;5119478;27;20383;-48
2021/12/10 13:10:41;;;;;;;10.60;2.72;;;;;;;;;;5117901;27;20027;-48
2021/12/10 13:13:14;;;;;;;4.93;3.15;;;;;;;;;;5117037;27;20097;-49
2021/12/10 13:15:45;;;;;;;21.05;4.97;;;;;;;;;;5118289;27;20019;-48
2021/12/10 13:18:12;;;;;;;9.90;2.83;;;;;;;;;;5099782;27;20383;-47
2021/12/10 13:20:45;;;;;;;9.80;2.75;;;;;;;;;;5118766;27;20023;-47
2021/12/10 13:23:13;;;;;;;6.25;2.33;;;;;;;;;;5117343;27;20027;-44
2021/12/10 13:25:39;;;;;;;3.72;2.47;;;;;;;;;;5114369;27;20633;-47
2021/12/10 13:28:04;;;;;;;7.43;1.48;;;;;;;;;;5117936;27;20038;-44
2021/12/10 13:30:34;;;;;;;5.28;1.63;;;;;;;;;;5119504;27;20028;-49
2021/12/10 13:33:00;;;;;;;6.35;2.25;;;;;;;;;;5119097;27;20021;-47
2021/12/10 13:35:27;;;;;;;5.75;1.95;;;;;;;;;;5116890;27;20019;-50
2021/12/10 13:37:53;;;;;;;9.30;2.30;;;;;;;;;;5122653;27;20020;-49
2021/12/10 13:40:18;;;;;;;10.60;1.15;;;;;;;;;;5118942;27;20035;-44
2021/12/10 13:42:45;;;;;;;6.50;1.85;;;;;;;;;;5117592;27;20085;-45
2021/12/10 13:45:11;;;;;;;4.55;1.23;;;;;;;;;;5118289;27;20527;-49
2021/12/10 13:47:50;;;;;;;6.70;2.05;;;;;;;;;;5118948;27;20034;-49
2021/12/10 13:50:17;;;;;;;3.30;1.92;;;;;;;;;;5118931;27;20050;-46
2021/12/10 13:53:04;;;;;;;2.88;0.93;;;;;;;;;;5118124;27;20023;-48
2021/12/10 13:55:29;;;;;;;5.88;1.10;;;;;;;;;;5116269;27;20106;-49
2021/12/10 13:58:25;;;;;;;1.48;0.90;;;;;;;;;;5117924;27;20115;-48
2021/12/10 14:01:02;;;;;;;5.07;2.05;;;;;;;;;;5111989;27;20043;-47
2021/12/10 14:03:40;;;;;;;2.95;1.58;;;;;;;;;;5118699;27;20023;-49
2021/12/10 14:06:06;;;;;;;7.13;2.65;;;;;;;;;;5116871;27;20110;-49
2021/12/10 14:08:33;;;;;;;7.57;3.10;;;;;;;;;;5113860;27;20141;-45
2021/12/10 14:11:11;;;;;;;5.40;2.17;;;;;;;;;;5117758;27;20064;-50
2021/12/10 14:13:36;;;;;;;5.85;2.25;;;;;;;;;;5116030;27;20126;-48
2021/12/10 14:16:06;;;;;;;5.32;2.58;;;;;;;;;;5118152;27;20172;-49
2021/12/10 14:18:35;;;;;;;2.70;1.92;;;;;;;;;;5121466;27;20070;-49
2021/12/10 14:21:03;;;;;;;32.78;7.53;;;;;;;;;;5114587;27;20072;-46
2021/12/10 14:23:32;;;;;;;10.65;2.83;;;;;;;;;;5118383;27;20019;-51
2021/12/10 14:26:03;;;;;;;4.97;2.40;;;;;;;;;;5119198;27;20019;-49
2021/12/10 14:28:39;;;;;;;2.42;1.70;;;;;;;;;;5116945;27;20128;-47
2021/12/10 14:31:16;;;;;;;4.72;2.20;;;;;;;;;;5118903;27;20052;-47
2021/12/10 14:33:51;;;;;;;4.32;1.40;;;;;;;;;;5117469;27;20023;-47
2021/12/10 14:36:19;;;;;;;6.82;3.17;;;;;;;;;;5113523;27;20031;-47
2021/12/10 14:38:52;;;;;;;5.65;2.50;;;;;;;;;;5116047;27;20015;-48
2021/12/10 14:41:38;;;;;;;5.30;1.38;;;;;;;;;;5115714;27;20019;-50
2021/12/10 14:44:04;;;;;;;7.43;3.17;;;;;;;;;;5117311;27;20046;-49
2021/12/10 14:46:35;;;;;;;5.95;3.28;;;;;;;;;;5118048;27;20028;-46
2021/12/10 14:49:26;;;;;;;9.88;2.67;;;;;;;;;;5118124;27;20024;-49
2021/12/10 14:52:06;;;;;;;2.90;1.10;;;;;;;;;;5118836;27;20031;-48
2021/12/10 14:54:33;;;;;;;2.92;0.80;;;;;;;;;;5117166;27;20028;-46
2021/12/10 14:57:02;;;;;;;3.08;1.33;;;;;;;;;;5116015;27;20078;-49
2021/12/10 14:59:40;;;;;;;2.40;1.63;;;;;;;;;;5117159;27;20023;-50